createdAt,value
2023-05-01T00:03:58.318Z,99.9
2023-05-01T00:05:59.950Z,99.9
2023-05-01T00:08:01.939Z,99.9
2023-05-01T00:10:03.963Z,99.9
2023-05-01T00:12:05.957Z,99.9
2023-05-01T00:14:07.912Z,99.9
2023-05-01T00:16:10.061Z,99.9
2023-05-01T00:18:15.494Z,99.9
2023-05-01T00:20:17.295Z,99.9
2023-05-01T00:22:19.279Z,99.9
2023-05-01T00:24:21.278Z,99.9
2023-05-01T00:26:23.268Z,99.9
2023-05-01T00:28:25.251Z,99.9
2023-05-01T00:30:27.296Z,99.9
2023-05-01T00:32:32.549Z,99.9
2023-05-01T00:34:34.512Z,99.9
2023-05-01T00:36:36.510Z,99.9
2023-05-01T00:38:38.500Z,99.9
2023-05-01T00:40:40.487Z,99.9
2023-05-01T00:42:42.472Z,99.9
2023-05-01T00:44:44.495Z,99.9
2023-05-01T00:46:49.731Z,99.9
2023-05-01T00:48:51.731Z,99.9
2023-05-01T00:50:53.694Z,99.9
2023-05-01T00:55:24.573Z,99.9
2023-05-01T01:01:33.816Z,99.9
2023-05-01T01:03:35.809Z,99.9
2023-05-01T01:15:51.000Z,99.9
2023-05-01T01:23:58.946Z,99.9
2023-05-01T01:26:00.901Z,99.9
2023-05-01T01:28:06.155Z,99.9
2023-05-01T01:30:08.119Z,99.9
2023-05-01T01:32:10.085Z,99.9
2023-05-01T01:34:12.101Z,99.9
2023-05-01T01:36:14.100Z,99.9
2023-05-01T01:38:16.072Z,99.9
2023-05-01T01:40:18.079Z,99.9
2023-05-01T01:42:23.311Z,99.9
2023-05-01T01:44:25.286Z,99.9
2023-05-01T01:46:27.302Z,99.9
2023-05-01T01:47:29.923Z,99.9
2023-05-01T01:59:45.063Z,99.9
2023-05-01T02:12:00.260Z,99.9
2023-05-01T02:18:06.284Z,99.9
2023-05-01T02:20:08.188Z,99.9
2023-05-01T02:22:10.151Z,99.9
2023-05-01T02:28:19.397Z,99.9
2023-05-01T02:32:23.359Z,99.9
2023-05-01T02:34:25.325Z,99.9
2023-05-01T02:38:32.507Z,99.9
2023-05-01T02:42:36.393Z,99.9
2023-05-01T02:43:39.178Z,99.9
2023-05-01T02:45:40.969Z,99.9
2023-05-01T02:47:42.977Z,99.9
2023-05-01T02:49:44.915Z,99.9
2023-05-01T02:51:50.128Z,99.9
2023-05-01T02:55:54.107Z,99.9
2023-05-01T02:59:58.236Z,99.9
2023-05-01T03:06:07.268Z,99.9
2023-05-01T03:08:09.218Z,99.9
2023-05-01T03:12:13.218Z,99.9
2023-05-01T03:14:15.164Z,99.9
2023-05-01T03:22:26.306Z,99.9
2023-05-01T03:34:41.353Z,99.9
2023-05-01T03:36:43.358Z,99.9
2023-05-01T03:39:47.916Z,99.9
2023-05-01T03:41:49.936Z,99.9
2023-05-01T03:43:51.907Z,99.9
2023-05-01T03:45:53.924Z,99.9
2023-05-01T03:47:59.119Z,99.9
2023-05-01T03:50:01.090Z,99.9
2023-05-01T03:52:03.067Z,99.9
2023-05-01T03:54:05.033Z,99.9
2023-05-01T03:56:07.000Z,99.9
2023-05-01T03:58:09.020Z,99.9
2023-05-01T04:00:14.794Z,99.9
2023-05-01T04:04:18.233Z,99.9
2023-05-01T04:06:20.198Z,99.9
2023-05-01T04:08:22.149Z,99.9
2023-05-01T04:10:24.123Z,99.9
2023-05-01T04:12:26.082Z,99.9
2023-05-01T04:14:28.033Z,99.9
2023-05-01T04:16:33.320Z,99.9
2023-05-01T04:26:43.153Z,99.9
2023-05-01T04:30:50.339Z,99.9
2023-05-01T04:37:24.544Z,99.9
2023-05-01T04:39:26.540Z,99.9
2023-05-01T04:41:28.498Z,99.9
2023-05-01T04:43:33.702Z,99.9
2023-05-01T04:45:35.677Z,99.9
2023-05-01T04:47:37.673Z,99.9
2023-05-01T04:49:39.675Z,99.9
2023-05-01T04:51:41.657Z,99.9
2023-05-01T04:53:43.652Z,99.9
2023-05-01T04:55:45.592Z,99.9
2023-05-01T04:59:52.779Z,99.9
2023-05-01T05:12:07.928Z,99.9
2023-05-01T05:16:11.913Z,99.9
2023-05-01T05:18:13.876Z,99.9
2023-05-01T05:22:17.824Z,99.9
2023-05-01T05:24:19.803Z,99.9
2023-05-01T05:26:25.017Z,99.9
2023-05-01T05:28:26.982Z,99.9
2023-05-01T05:31:31.660Z,99.9
2023-05-01T05:33:33.576Z,99.9
2023-05-01T05:35:35.551Z,99.9
2023-05-01T05:37:37.561Z,99.9
2023-05-01T05:39:42.754Z,99.9
2023-05-01T05:41:44.750Z,99.9
2023-05-01T05:47:50.741Z,99.9
2023-05-01T05:49:52.676Z,99.9
2023-05-01T05:51:54.670Z,99.9
2023-05-01T06:00:05.873Z,99.9
2023-05-01T06:04:09.858Z,99.9
2023-05-01T06:06:11.915Z,99.9
2023-05-01T06:08:17.071Z,99.9
2023-05-01T06:10:19.008Z,99.9
2023-05-01T06:12:21.015Z,99.9
2023-05-01T06:14:23.027Z,99.9
2023-05-01T06:16:25.070Z,99.9
2023-05-01T06:20:29.017Z,99.9
2023-05-01T06:22:34.172Z,99.9
2023-05-01T06:27:40.743Z,99.9
2023-05-01T06:29:42.750Z,99.9
2023-05-01T06:31:44.796Z,99.9
2023-05-01T06:33:46.727Z,99.9
2023-05-01T06:35:51.996Z,99.9
2023-05-01T06:37:53.957Z,99.9
2023-05-01T06:39:56.255Z,99.9
2023-05-01T06:44:00.091Z,99.9
2023-05-01T06:46:01.906Z,99.9
2023-05-01T06:54:13.171Z,99.9
2023-05-01T06:56:15.138Z,99.9
2023-05-01T06:58:24.126Z,99.9
2023-05-01T07:00:19.117Z,99.9
2023-05-01T07:02:21.282Z,99.9
2023-05-01T07:04:26.395Z,99.9
2023-05-01T07:06:28.419Z,99.9
2023-05-01T07:08:30.360Z,99.9
2023-05-01T07:10:32.317Z,99.9
2023-05-01T07:12:34.309Z,99.9
2023-05-01T07:14:36.375Z,99.9
2023-05-01T07:16:38.382Z,99.9
2023-05-01T07:18:43.556Z,99.9
2023-05-01T07:20:45.615Z,99.9
2023-05-01T07:22:47.579Z,99.9
2023-05-01T07:23:50.206Z,99.9
2023-05-01T07:25:52.211Z,99.9
2023-05-01T07:27:54.222Z,99.9
2023-05-01T07:44:13.335Z,99.9
2023-05-01T07:48:20.400Z,99.9
2023-05-01T07:50:22.444Z,99.9
2023-05-01T07:52:24.412Z,99.9
2023-05-01T07:54:26.291Z,99.9
2023-05-01T07:56:28.208Z,99.9
2023-05-01T07:58:30.107Z,99.9
2023-05-01T08:04:39.307Z,99.9
2023-05-01T08:06:41.346Z,99.9
2023-05-01T08:08:43.126Z,99.9
2023-05-01T08:14:52.060Z,99.9
2023-05-01T08:16:53.967Z,99.9
2023-05-01T08:21:24.477Z,99.9
2023-05-01T08:23:26.339Z,99.9
2023-05-01T08:25:28.244Z,99.9
2023-05-01T08:27:33.286Z,99.9
2023-05-01T08:29:35.169Z,99.9
2023-05-01T08:31:37.125Z,99.9
2023-05-01T08:33:38.964Z,99.9
2023-05-01T08:35:40.842Z,99.9
2023-05-01T08:37:42.719Z,99.9
2023-05-01T08:41:49.665Z,99.9
2023-05-01T08:47:55.449Z,99.9
2023-05-01T08:51:59.084Z,99.9
2023-05-01T08:56:05.964Z,99.6
2023-05-01T08:58:07.856Z,99.6
2023-05-01T09:00:09.709Z,99.6
2023-05-01T09:02:11.710Z,99.4
2023-05-01T09:04:13.483Z,99.4
2023-05-01T09:06:15.358Z,99.5
2023-05-01T09:08:17.151Z,99.1
2023-05-01T09:10:22.138Z,98.1
2023-05-01T09:12:24.121Z,97.2
2023-05-01T09:15:28.402Z,94.1
2023-05-01T09:17:30.372Z,93.7
2023-05-01T09:19:32.076Z,93.3
2023-05-01T09:21:33.900Z,93.1
2023-05-01T09:23:38.894Z,92.6
2023-05-01T09:25:40.735Z,92.1
2023-05-01T09:27:42.565Z,91.7
2023-05-01T09:37:54.923Z,80
2023-05-01T09:39:56.757Z,78.9
2023-05-01T09:41:58.392Z,78.8
2023-05-01T09:44:00.199Z,77.7
2023-05-01T09:46:02.063Z,74.3
2023-05-01T09:50:05.566Z,74.8
2023-05-01T09:56:14.102Z,76.1
2023-05-01T10:02:19.645Z,72.4
2023-05-01T10:06:26.276Z,73.6
2023-05-01T10:08:28.040Z,74.1
2023-05-01T10:17:38.242Z,72.9
2023-05-01T10:23:47.719Z,72
2023-05-01T10:27:52.868Z,72.3
2023-05-01T10:31:56.566Z,74.1
2023-05-01T10:40:06.995Z,72.9
2023-05-01T10:44:10.653Z,72.6
2023-05-01T10:46:12.552Z,72.1
2023-05-01T10:48:17.491Z,69.9
2023-05-01T10:50:19.266Z,69.8
2023-05-01T10:52:21.113Z,68.9
2023-05-01T10:54:22.932Z,68.8
2023-05-01T10:58:26.674Z,68.9
2023-05-01T11:00:28.521Z,69
2023-05-01T11:02:33.504Z,69
2023-05-01T11:07:39.667Z,67.5
2023-05-01T11:09:41.624Z,67
2023-05-01T11:13:45.189Z,64.3
2023-05-01T11:15:50.206Z,63.8
2023-05-01T11:17:52.094Z,63.6
2023-05-01T11:19:53.876Z,56
2023-05-01T11:21:55.707Z,55.8
2023-05-01T11:23:57.550Z,63.7
2023-05-01T11:25:59.384Z,63.8
2023-05-01T11:28:01.209Z,64
2023-05-01T11:30:06.213Z,64.5
2023-05-01T11:32:08.117Z,64.4
2023-05-01T11:34:09.895Z,61.1
2023-05-01T11:36:11.734Z,65
2023-05-01T11:38:13.554Z,64.6
2023-05-01T11:40:15.383Z,64.7
2023-05-01T11:42:17.259Z,58.8
2023-05-01T11:44:22.213Z,65.6
2023-05-01T11:46:24.115Z,66
2023-05-01T11:50:27.709Z,66.5
2023-05-01T11:52:29.559Z,66.6
2023-05-01T11:54:31.369Z,66.4
2023-05-01T11:58:38.189Z,63.8
2023-05-01T12:00:40.021Z,61.8
2023-05-01T12:05:10.297Z,65.6
2023-05-01T12:07:12.122Z,64.8
2023-05-01T12:09:13.960Z,64.5
2023-05-01T12:11:18.952Z,64.3
2023-05-01T12:13:20.818Z,64.4
2023-05-01T12:15:22.594Z,64.6
2023-05-01T12:17:24.525Z,64.4
2023-05-01T12:19:26.265Z,64.7
2023-05-01T12:27:36.721Z,60.9
2023-05-01T12:29:38.579Z,60.7
2023-05-01T12:31:40.376Z,61.1
2023-05-01T12:35:43.993Z,62.1
2023-05-01T12:37:45.817Z,60.1
2023-05-01T12:39:50.808Z,60.8
2023-05-01T12:41:52.610Z,61.1
2023-05-01T12:45:56.263Z,62.2
2023-05-01T12:47:58.098Z,61.9
2023-05-01T12:50:00.180Z,61.9
2023-05-01T12:52:01.737Z,61.1
2023-05-01T12:54:06.685Z,60.5
2023-05-01T12:59:12.759Z,61
2023-05-01T13:01:14.592Z,61.6
2023-05-01T13:05:18.160Z,62
2023-05-01T13:07:23.257Z,62.4
2023-05-01T13:09:24.954Z,62.2
2023-05-01T13:11:26.771Z,62.1
2023-05-01T13:13:28.537Z,62.5
2023-05-01T13:15:30.394Z,63.4
2023-05-01T13:17:32.389Z,58
2023-05-01T13:19:33.990Z,64.5
2023-05-01T13:21:38.947Z,64.4
2023-05-01T13:27:44.353Z,64
2023-05-01T13:35:54.660Z,60
2023-05-01T13:37:56.457Z,59.4
2023-05-01T13:42:00.004Z,58.8
2023-05-01T13:44:01.758Z,58.2
2023-05-01T13:46:03.659Z,57.9
2023-05-01T13:48:05.381Z,57.8
2023-05-01T13:50:10.262Z,57.1
2023-05-01T13:52:12.023Z,56.8
2023-05-01T13:54:13.824Z,57.4
2023-05-01T13:55:16.280Z,59.5
2023-05-01T13:57:18.051Z,59.6
2023-05-01T14:05:28.341Z,59.8
2023-05-01T14:15:37.283Z,66.9
2023-05-01T14:17:42.252Z,67.3
2023-05-01T14:19:44.056Z,67.9
2023-05-01T14:21:45.861Z,68.1
2023-05-01T14:23:47.625Z,68.4
2023-05-01T14:25:49.452Z,68.6
2023-05-01T14:51:20.189Z,72.6
2023-05-01T14:53:22.030Z,71.5
2023-05-01T14:55:23.895Z,71.4
2023-05-01T14:57:26.966Z,71.5
2023-05-01T14:59:30.774Z,72.4
2023-05-01T15:03:34.596Z,73.3
2023-05-01T15:05:36.298Z,73.1
2023-05-01T15:07:38.135Z,73.5
2023-05-01T15:09:39.992Z,73.7
2023-05-01T15:11:41.849Z,74.1
2023-05-01T15:13:46.848Z,74.3
2023-05-01T15:15:48.728Z,74.1
2023-05-01T15:17:50.592Z,73.6
2023-05-01T15:19:52.386Z,73
2023-05-01T15:21:54.247Z,61.9
2023-05-01T15:23:56.107Z,72.6
2023-05-01T15:25:57.942Z,73.1
2023-05-01T15:28:02.989Z,73.3
2023-05-01T15:32:11.988Z,73.1
2023-05-01T15:34:08.503Z,73.1
2023-05-01T15:50:53.124Z,74
2023-05-01T15:52:54.988Z,74
2023-05-01T15:59:04.036Z,73.9
2023-05-01T16:01:05.855Z,74.1
2023-05-01T16:03:07.812Z,73.6
2023-05-01T16:05:09.560Z,74
2023-05-01T16:13:20.128Z,75.7
2023-05-01T16:17:25.405Z,76.9
2023-05-01T16:19:27.180Z,77.6
2023-05-01T16:21:29.026Z,77.8
2023-05-01T16:23:34.073Z,79
2023-05-01T16:25:35.866Z,80
2023-05-01T16:27:37.717Z,81.5
2023-05-01T16:29:39.582Z,81.6
2023-05-01T16:31:41.479Z,82
2023-05-01T16:33:43.294Z,82.9
2023-05-01T16:35:45.134Z,83.2
2023-05-01T16:37:50.118Z,85.8
2023-05-01T16:39:51.991Z,86.7
2023-05-01T16:41:53.848Z,87.5
2023-05-01T16:42:56.341Z,87.3
2023-05-01T16:44:58.222Z,87.7
2023-05-01T16:47:00.117Z,88.1
2023-05-01T16:55:10.716Z,86.8
2023-05-01T17:01:16.372Z,87.7
2023-05-01T17:03:18.164Z,88.9
2023-05-01T17:05:23.138Z,89.8
2023-05-01T17:07:25.013Z,90.1
2023-05-01T17:13:30.618Z,79.6
2023-05-01T17:15:32.471Z,80.5
2023-05-01T17:17:34.398Z,80.5
2023-05-01T17:21:41.216Z,82.6
2023-05-01T17:23:43.106Z,88.6
2023-05-01T17:25:44.943Z,89.6
2023-05-01T17:27:46.821Z,93.2
2023-05-01T17:29:48.672Z,95.3
2023-05-01T17:31:50.569Z,95.7
2023-05-01T17:35:57.412Z,98.7
2023-05-01T17:37:59.314Z,99.2
2023-05-01T17:39:01.828Z,99.5
2023-05-01T17:43:05.600Z,99.9
2023-05-01T17:45:07.561Z,99.9
2023-05-01T17:47:12.514Z,99.9
2023-05-01T17:51:16.276Z,99.9
2023-05-01T17:53:18.145Z,99.9
2023-05-01T17:55:20.030Z,99.9
2023-05-01T17:57:21.896Z,99.9
2023-05-01T18:03:30.800Z,99.9
2023-05-01T18:05:32.631Z,99.9
2023-05-01T18:07:34.464Z,99.9
2023-05-01T18:09:36.356Z,99.9
2023-05-01T18:11:38.247Z,99.9
2023-05-01T18:13:40.183Z,99.9
2023-05-01T18:15:45.153Z,99.9
2023-05-01T18:17:47.074Z,99.9
2023-05-01T18:19:48.906Z,99.9
2023-05-01T18:21:50.807Z,99.9
2023-05-01T18:23:52.687Z,99.9
2023-05-01T18:25:54.567Z,99.9
2023-05-01T18:27:56.452Z,99.9
2023-05-01T18:30:01.976Z,99.9
2023-05-01T18:32:03.773Z,99.9
2023-05-01T18:35:07.802Z,99.9
2023-05-01T18:37:09.688Z,99.9
2023-05-01T18:49:24.188Z,99.9
2023-05-01T18:53:27.953Z,99.9
2023-05-01T18:57:34.855Z,99.9
2023-05-01T18:59:36.758Z,99.9
2023-05-01T19:01:38.730Z,99.9
2023-05-01T19:09:46.202Z,99.9
2023-05-01T19:15:55.086Z,99.9
2023-05-01T19:17:56.971Z,99.9
2023-05-01T19:28:09.538Z,99.9
2023-05-01T19:30:11.446Z,99.9
2023-05-01T19:32:40.148Z,99.9
2023-05-01T19:34:41.923Z,99.9
2023-05-01T19:36:43.816Z,99.9
2023-05-01T19:38:48.882Z,99.9
2023-05-01T19:40:50.739Z,99.9
2023-05-01T19:42:52.636Z,99.9
2023-05-01T19:44:54.536Z,99.9
2023-05-01T19:46:56.424Z,99.9
2023-05-01T19:48:58.349Z,99.9
2023-05-01T19:51:00.246Z,99.9
2023-05-01T19:53:05.315Z,99.9
2023-05-01T19:55:07.169Z,99.9
2023-05-01T19:57:09.076Z,99.9
2023-05-01T19:59:10.948Z,99.9
2023-05-01T20:01:12.874Z,99.9
2023-05-01T20:17:31.182Z,99.9
2023-05-01T20:21:38.143Z,99.9
2023-05-01T20:23:40.003Z,99.9
2023-05-01T20:25:41.914Z,99.9
2023-05-01T20:26:44.437Z,99.9
2023-05-01T20:30:48.300Z,99.9
2023-05-01T20:32:50.191Z,99.9
2023-05-01T20:34:55.217Z,99.9
2023-05-01T20:41:00.919Z,99.9
2023-05-01T20:43:02.952Z,99.9
2023-05-01T20:45:04.849Z,99.9
2023-05-01T20:47:06.748Z,99.9
2023-05-01T20:49:13.773Z,99.9
2023-05-01T20:51:13.778Z,99.9
2023-05-01T21:01:23.379Z,99.9
2023-05-01T21:03:28.503Z,99.9
2023-05-01T21:07:32.199Z,99.9
2023-05-01T21:09:34.201Z,99.9
2023-05-01T21:11:36.089Z,99.9
2023-05-01T21:13:38.078Z,99.9
2023-05-01T21:17:45.122Z,99.9
2023-05-01T21:19:47.041Z,99.9
2023-05-01T21:21:48.930Z,99.9
2023-05-01T21:22:51.547Z,99.9
2023-05-01T21:24:53.407Z,99.9
2023-05-01T21:28:57.449Z,99.9
2023-05-01T21:31:02.477Z,99.9
2023-05-01T21:33:04.375Z,99.9
2023-05-01T21:35:06.292Z,99.9
2023-05-01T21:37:08.154Z,99.9
2023-05-01T21:39:10.065Z,99.9
2023-05-01T21:41:11.970Z,99.9
2023-05-01T21:43:13.966Z,99.9
2023-05-01T21:45:19.112Z,99.9
2023-05-01T21:47:21.091Z,99.9
2023-05-01T21:49:23.102Z,99.9
2023-05-01T21:51:24.911Z,99.9
2023-05-01T21:53:26.928Z,99.9
2023-05-01T21:55:28.956Z,99.9
2023-05-01T21:57:30.959Z,99.9
2023-05-01T21:59:36.103Z,99.9
2023-05-01T22:01:38.092Z,99.9
2023-05-01T22:03:39.999Z,99.9
2023-05-01T22:05:41.939Z,99.9
2023-05-01T22:07:43.891Z,99.9
2023-05-01T22:09:47.473Z,99.9
2023-05-01T22:11:49.340Z,99.9
2023-05-01T22:13:54.627Z,99.9
2023-05-01T22:15:56.519Z,99.9
2023-05-01T22:17:58.416Z,99.9
2023-05-01T22:19:00.905Z,99.9
2023-05-01T22:21:02.942Z,99.9
2023-05-01T22:23:04.967Z,99.9
2023-05-01T22:29:14.088Z,99.9
2023-05-01T22:39:24.140Z,99.9
2023-05-01T22:41:29.373Z,99.9
2023-05-01T22:43:31.402Z,99.9
2023-05-01T22:45:33.416Z,99.9
2023-05-01T22:47:35.506Z,99.9
2023-05-01T22:49:37.421Z,99.9
2023-05-01T22:53:41.450Z,99.9
2023-05-01T22:55:46.712Z,99.9
2023-05-01T22:57:48.722Z,99.9
2023-05-01T22:59:50.735Z,99.9
2023-05-01T23:01:52.753Z,99.9
2023-05-01T23:03:54.837Z,99.9
2023-05-01T23:05:56.747Z,99.9
2023-05-01T23:07:58.776Z,99.9
2023-05-01T23:20:40.849Z,99.9
2023-05-01T23:26:50.091Z,99.9
2023-05-01T23:28:52.101Z,99.9
2023-05-01T23:30:53.968Z,99.9
2023-05-01T23:34:57.995Z,99.9
2023-05-01T23:41:07.248Z,99.9
2023-05-01T23:43:09.234Z,99.9
2023-05-01T23:45:11.257Z,99.9
2023-05-01T23:47:13.282Z,99.9
2023-05-01T23:49:15.267Z,99.9
2023-05-01T23:51:20.493Z,99.9
2023-05-01T23:55:24.502Z,99.9
2023-05-01T23:57:26.479Z,99.9
2023-05-01T23:59:28.513Z,99.9
